createdAt,value
2019-05-26T00:02:13.779Z,66.20
2019-05-26T00:04:42.201Z,66.03
2019-05-26T00:07:10.602Z,65.56
2019-05-26T00:09:39.418Z,65.95
2019-05-26T00:12:07.793Z,66.46
2019-05-26T00:14:37.716Z,67.47
2019-05-26T00:17:06.108Z,67.83
2019-05-26T00:19:34.519Z,67.46
2019-05-26T00:22:02.890Z,67.62
2019-05-26T00:24:31.304Z,68.17
2019-05-26T00:26:59.697Z,69.52
2019-05-26T00:29:28.074Z,70.08
2019-05-26T00:31:56.677Z,70.93
2019-05-26T00:34:25.055Z,71.28
2019-05-26T00:36:53.534Z,70.30
2019-05-26T00:39:22.013Z,70.55
2019-05-26T00:41:50.419Z,70.65
2019-05-26T00:44:20.663Z,69.10
2019-05-26T00:46:49.260Z,68.36
2019-05-26T00:49:17.654Z,68.57
2019-05-26T00:51:46.194Z,68.83
2019-05-26T00:54:14.661Z,68.75
2019-05-26T00:56:43.258Z,69.03
2019-05-26T00:59:11.654Z,69.07
2019-05-26T01:01:40.094Z,69.93
2019-05-26T01:04:08.614Z,70.54
2019-05-26T01:06:37.014Z,69.79
2019-05-26T01:09:07.619Z,70.64
2019-05-26T01:11:36.230Z,70.88
2019-05-26T01:14:04.970Z,70.25
2019-05-26T01:16:34.916Z,70.50
2019-05-26T01:19:04.568Z,71.30
2019-05-26T01:21:32.983Z,71.26
2019-05-26T01:24:01.368Z,72.75
2019-05-26T01:26:29.781Z,71.29
2019-05-26T01:28:58.181Z,71.06
2019-05-26T01:31:26.595Z,70.97
2019-05-26T01:33:54.984Z,71.27
2019-05-26T01:36:23.447Z,71.94
2019-05-26T01:38:53.494Z,71.83
2019-05-26T01:41:21.882Z,71.66
2019-05-26T01:43:50.363Z,72.75
2019-05-26T01:46:18.707Z,74.26
2019-05-26T01:48:47.128Z,73.48
2019-05-26T01:51:15.517Z,74.70
2019-05-26T01:53:43.949Z,74.51
2019-05-26T01:56:12.338Z,73.26
2019-05-26T01:58:40.854Z,73.18
2019-05-26T02:01:11.332Z,73.44
2019-05-26T02:03:39.443Z,74.67
2019-05-26T02:06:07.839Z,75.33
2019-05-26T02:08:39.777Z,73.82
2019-05-26T02:11:07.880Z,74.40
2019-05-26T02:13:36.286Z,73.49
2019-05-26T02:16:05.156Z,73.74
2019-05-26T02:18:33.579Z,74.15
2019-05-26T02:21:02.089Z,73.72
2019-05-26T02:23:32.086Z,73.63
2019-05-26T02:26:00.542Z,74.66
2019-05-26T02:28:28.947Z,75.37
2019-05-26T02:30:58.881Z,76.19
2019-05-26T02:33:28.817Z,74.41
2019-05-26T02:35:57.485Z,74.56
2019-05-26T02:38:26.656Z,74.50
2019-05-26T02:40:55.491Z,76.09
2019-05-26T02:43:23.896Z,75.67
2019-05-26T02:45:52.366Z,75.44
2019-05-26T02:48:20.773Z,74.92
2019-05-26T02:50:49.489Z,74.58
2019-05-26T02:53:24.402Z,75.10
2019-05-26T02:55:49.576Z,76.39
2019-05-26T02:58:18.288Z,75.93
2019-05-26T03:00:47.822Z,76.30
2019-05-26T03:03:16.955Z,75.48
2019-05-26T03:05:47.002Z,75.56
2019-05-26T03:08:16.527Z,76.26
2019-05-26T03:10:45.447Z,75.99
2019-05-26T03:13:15.494Z,76.17
2019-05-26T03:15:45.747Z,76.19
2019-05-26T03:18:14.303Z,75.44
2019-05-26T03:20:43.756Z,75.64
2019-05-26T03:23:12.321Z,76.56
2019-05-26T03:25:40.786Z,77.11
2019-05-26T03:28:09.242Z,76.19
2019-05-26T03:30:38.184Z,77.00
2019-05-26T03:33:06.856Z,76.49
2019-05-26T03:35:35.344Z,76.63
2019-05-26T03:38:04.652Z,77.59
2019-05-26T03:40:33.063Z,77.62
2019-05-26T03:43:01.610Z,78.21
2019-05-26T03:45:35.672Z,78.72
2019-05-26T03:48:04.541Z,78.01
2019-05-26T03:50:32.928Z,77.60
2019-05-26T03:53:01.430Z,78.14
2019-05-26T03:55:29.843Z,77.30
2019-05-26T03:57:58.228Z,76.44
2019-05-26T04:00:26.778Z,76.07
2019-05-26T04:02:55.232Z,76.93
2019-05-26T04:05:23.790Z,76.63
2019-05-26T04:07:52.195Z,77.69
2019-05-26T04:10:20.584Z,78.76
2019-05-26T04:12:48.978Z,77.71
2019-05-26T04:15:17.367Z,77.03
2019-05-26T04:17:45.777Z,76.64
2019-05-26T04:20:15.035Z,76.82
2019-05-26T04:22:43.446Z,76.31
2019-05-26T04:25:11.925Z,75.53
2019-05-26T04:27:40.702Z,75.41
2019-05-26T04:30:10.960Z,75.17
2019-05-26T04:32:39.372Z,74.16
2019-05-26T04:35:07.831Z,75.92
2019-05-26T04:37:36.253Z,75.21
2019-05-26T04:40:25.067Z,74.79
2019-05-26T04:42:37.851Z,73.39
2019-05-26T04:45:10.563Z,76.61
2019-05-26T04:47:39.126Z,75.23
2019-05-26T04:50:07.975Z,75.13
2019-05-26T04:52:36.425Z,73.47
2019-05-26T04:55:09.131Z,72.84
2019-05-26T04:57:37.560Z,75.75
2019-05-26T05:00:08.387Z,74.06
2019-05-26T05:02:38.406Z,73.63
2019-05-26T05:05:10.084Z,72.96
2019-05-26T05:07:38.641Z,74.87
2019-05-26T05:10:07.862Z,75.76
2019-05-26T05:12:36.527Z,74.82
2019-05-26T05:15:08.801Z,76.46
2019-05-26T05:17:37.316Z,76.63
2019-05-26T05:20:09.123Z,77.18
2019-05-26T05:22:37.851Z,77.33
2019-05-26T05:25:14.697Z,76.58
2019-05-26T05:27:39.586Z,76.48
2019-05-26T05:30:09.264Z,75.53
2019-05-26T05:32:38.198Z,75.74
2019-05-26T05:35:08.572Z,76.20
2019-05-26T05:37:37.097Z,75.53
2019-05-26T05:40:09.570Z,75.19
2019-05-26T05:42:38.290Z,75.19
2019-05-26T05:45:09.074Z,74.95
2019-05-26T05:47:37.551Z,74.78
2019-05-26T05:50:10.717Z,74.55
2019-05-26T05:52:39.109Z,73.85
2019-05-26T05:55:08.391Z,73.49
2019-05-26T05:57:36.855Z,73.10
2019-05-26T06:00:10.284Z,72.37
2019-05-26T06:02:38.699Z,71.94
2019-05-26T06:05:08.376Z,72.31
2019-05-26T06:07:38.521Z,71.90
2019-05-26T06:10:10.584Z,70.30
2019-05-26T06:12:40.549Z,69.74
2019-05-26T06:15:10.711Z,68.48
2019-05-26T06:17:39.152Z,67.17
2019-05-26T06:20:09.713Z,63.38
2019-05-26T06:22:38.194Z,63.56
2019-05-26T06:25:07.445Z,64.05
2019-05-26T06:27:35.877Z,64.17
2019-05-26T06:30:06.423Z,63.37
2019-05-26T06:32:34.827Z,62.32
2019-05-26T06:35:03.262Z,61.82
2019-05-26T06:37:31.663Z,60.95
2019-05-26T06:40:00.182Z,60.80
2019-05-26T06:42:28.608Z,60.78
2019-05-26T06:44:57.149Z,58.98
2019-05-26T06:47:25.555Z,60.65
2019-05-26T06:49:53.963Z,58.69
2019-05-26T06:52:22.369Z,57.94
2019-05-26T06:54:50.762Z,59.12
2019-05-26T06:57:19.269Z,57.80
2019-05-26T06:59:47.654Z,59.01
2019-05-26T07:02:16.130Z,56.71
2019-05-26T07:04:44.562Z,56.24
2019-05-26T07:07:12.997Z,55.44
2019-05-26T07:09:41.554Z,57.25
2019-05-26T07:12:09.913Z,55.87
2019-05-26T07:14:38.453Z,56.44
2019-05-26T07:17:08.387Z,54.06
2019-05-26T07:19:36.859Z,52.34
2019-05-26T07:22:06.858Z,53.18
2019-05-26T07:24:35.365Z,51.44
2019-05-26T07:27:04.663Z,51.58
2019-05-26T07:29:33.039Z,53.12
2019-05-26T07:32:01.599Z,50.37
2019-05-26T07:34:30.042Z,48.72
2019-05-26T07:36:58.943Z,50.70
2019-05-26T07:39:27.787Z,50.78
2019-05-26T07:42:09.446Z,51.13
2019-05-26T07:44:26.327Z,50.56
2019-05-26T07:46:54.838Z,50.68
2019-05-26T07:49:23.333Z,50.13
2019-05-26T07:51:53.334Z,49.40
2019-05-26T07:54:25.577Z,46.40
2019-05-26T07:56:53.384Z,47.44
2019-05-26T07:59:24.109Z,47.26
2019-05-26T08:01:52.633Z,47.58
2019-05-26T08:04:21.058Z,43.69
2019-05-26T08:06:49.494Z,44.33
2019-05-26T08:09:17.890Z,45.20
2019-05-26T08:11:46.621Z,45.41
2019-05-26T08:14:15.025Z,45.45
2019-05-26T08:16:43.422Z,46.12
2019-05-26T08:19:11.916Z,46.08
2019-05-26T08:21:40.552Z,46.79
2019-05-26T08:24:08.987Z,46.48
2019-05-26T08:26:37.368Z,46.59
2019-05-26T08:29:05.846Z,43.37
2019-05-26T08:31:34.249Z,45.40
2019-05-26T08:34:02.847Z,47.04
2019-05-26T08:36:31.380Z,45.74
2019-05-26T08:38:59.802Z,45.47
2019-05-26T08:41:28.237Z,43.49
2019-05-26T08:43:56.830Z,45.51
2019-05-26T08:46:25.340Z,44.02
2019-05-26T08:48:53.776Z,44.48
2019-05-26T08:51:22.472Z,45.27
2019-05-26T08:53:51.037Z,45.26
2019-05-26T08:56:19.444Z,42.61
2019-05-26T08:58:48.094Z,42.63
2019-05-26T09:01:16.489Z,41.91
2019-05-26T09:03:46.413Z,43.93
2019-05-26T09:06:14.919Z,43.23
2019-05-26T09:08:43.335Z,41.05
2019-05-26T09:11:11.808Z,40.50
2019-05-26T09:13:40.212Z,41.24
2019-05-26T09:16:08.623Z,42.94
2019-05-26T09:18:37.027Z,43.09
2019-05-26T09:21:05.418Z,43.09
2019-05-26T09:23:33.823Z,42.22
2019-05-26T09:26:02.239Z,39.78
2019-05-26T09:28:30.693Z,40.36
2019-05-26T09:30:59.210Z,38.56
2019-05-26T09:33:27.597Z,41.09
2019-05-26T09:35:56.014Z,38.51
2019-05-26T09:38:24.412Z,40.58
2019-05-26T09:40:52.960Z,40.87
2019-05-26T09:43:21.573Z,39.98
2019-05-26T09:45:51.533Z,39.35
2019-05-26T09:48:20.000Z,39.52
2019-05-26T09:50:49.080Z,37.68
2019-05-26T09:53:17.479Z,37.67
2019-05-26T09:55:45.887Z,40.22
2019-05-26T09:58:14.368Z,39.95
2019-05-26T10:00:44.316Z,35.92
2019-05-26T10:03:13.359Z,39.32
2019-05-26T10:05:42.425Z,35.89
2019-05-26T10:08:10.940Z,36.60
2019-05-26T10:10:39.358Z,38.81
2019-05-26T10:13:07.742Z,38.40
2019-05-26T10:15:36.206Z,37.54
2019-05-26T10:18:06.171Z,38.35
2019-05-26T10:20:34.591Z,35.21
2019-05-26T10:23:03.197Z,37.59
2019-05-26T10:25:31.601Z,36.84
2019-05-26T10:28:00.124Z,34.58
2019-05-26T10:30:28.536Z,34.77
2019-05-26T10:32:56.984Z,35.79
2019-05-26T10:35:25.579Z,33.75
2019-05-26T10:37:53.967Z,37.44
2019-05-26T10:40:22.549Z,36.67
2019-05-26T10:42:51.030Z,36.38
2019-05-26T10:45:20.131Z,33.52
2019-05-26T10:47:48.653Z,33.20
2019-05-26T10:50:17.397Z,34.86
2019-05-26T10:52:46.038Z,36.55
2019-05-26T10:55:14.727Z,35.40
2019-05-26T10:57:43.166Z,37.46
2019-05-26T11:00:13.880Z,35.96
2019-05-26T11:02:42.296Z,37.79
2019-05-26T11:05:10.890Z,39.28
2019-05-26T11:07:39.292Z,39.80
2019-05-26T11:10:08.318Z,37.47
2019-05-26T11:12:36.844Z,35.47
2019-05-26T11:15:09.701Z,37.35
2019-05-26T11:17:38.257Z,37.83
2019-05-26T11:20:12.193Z,38.37
2019-05-26T11:22:40.639Z,38.68
2019-05-26T11:25:11.491Z,37.74
2019-05-26T11:27:39.909Z,36.68
2019-05-26T11:30:10.824Z,38.29
2019-05-26T11:32:40.808Z,38.43
2019-05-26T11:35:10.167Z,34.03
2019-05-26T11:37:42.951Z,35.42
2019-05-26T11:40:13.106Z,37.21
2019-05-26T11:42:44.607Z,40.77
2019-05-26T11:45:12.051Z,37.90
2019-05-26T11:47:40.575Z,37.43
2019-05-26T11:50:09.500Z,39.13
2019-05-26T11:52:38.177Z,33.91
2019-05-26T11:55:09.909Z,35.70
2019-05-26T11:57:38.513Z,36.61
2019-05-26T12:00:16.339Z,36.01
2019-05-26T12:02:46.036Z,39.06
2019-05-26T12:05:17.643Z,35.91
2019-05-26T12:07:45.860Z,36.66
2019-05-26T12:10:14.890Z,37.05
2019-05-26T12:12:44.853Z,34.38
2019-05-26T12:15:15.506Z,35.23
2019-05-26T12:17:44.069Z,36.28
2019-05-26T12:20:12.661Z,33.03
2019-05-26T12:22:41.143Z,32.62
2019-05-26T12:25:10.207Z,35.24
2019-05-26T12:27:38.644Z,29.47
2019-05-26T12:30:10.168Z,32.22
2019-05-26T12:32:38.742Z,33.15
2019-05-26T12:35:10.998Z,29.32
2019-05-26T12:37:40.567Z,31.16
2019-05-26T12:40:10.932Z,34.18
2019-05-26T12:42:39.419Z,33.64
2019-05-26T12:45:09.870Z,31.89
2019-05-26T12:47:38.701Z,33.61
2019-05-26T12:50:09.667Z,28.74
2019-05-26T12:52:38.144Z,33.56
2019-05-26T12:55:09.279Z,31.10
2019-05-26T12:57:38.006Z,31.71
2019-05-26T13:00:10.525Z,33.13
2019-05-26T13:02:38.942Z,32.80
2019-05-26T13:05:08.676Z,33.49
2019-05-26T13:07:37.232Z,33.23
2019-05-26T13:10:09.396Z,32.99
2019-05-26T13:12:42.268Z,33.29
2019-05-26T13:15:12.728Z,30.38
2019-05-26T13:17:41.128Z,32.78
2019-05-26T13:20:10.665Z,30.85
2019-05-26T13:22:40.587Z,31.01
2019-05-26T13:25:11.299Z,30.29
2019-05-26T13:27:39.769Z,28.68
2019-05-26T13:30:11.249Z,30.65
2019-05-26T13:32:39.640Z,29.67
2019-05-26T13:35:09.265Z,31.25
2019-05-26T13:37:37.734Z,29.90
2019-05-26T13:40:07.994Z,30.94
2019-05-26T13:42:37.064Z,31.09
2019-05-26T13:45:21.880Z,30.08
2019-05-26T13:47:40.355Z,31.96
2019-05-26T13:50:09.815Z,31.65
2019-05-26T13:52:38.226Z,32.18
2019-05-26T13:55:08.940Z,30.49
2019-05-26T13:57:37.350Z,31.02
2019-05-26T14:00:08.755Z,32.29
2019-05-26T14:02:37.317Z,32.05
2019-05-26T14:05:08.903Z,32.93
2019-05-26T14:07:37.353Z,31.60
2019-05-26T14:10:08.226Z,29.79
2019-05-26T14:12:36.716Z,29.70
2019-05-26T14:15:09.748Z,30.98
2019-05-26T14:17:42.894Z,31.33
2019-05-26T14:20:13.125Z,29.17
2019-05-26T14:22:41.542Z,31.12
2019-05-26T14:25:10.287Z,32.36
2019-05-26T14:27:38.691Z,30.70
2019-05-26T14:30:08.596Z,31.75
2019-05-26T14:32:37.066Z,31.08
2019-05-26T14:35:07.036Z,30.28
2019-05-26T14:37:35.589Z,31.30
2019-05-26T14:40:09.764Z,31.27
2019-05-26T14:42:38.841Z,30.92
2019-05-26T14:45:10.459Z,31.35
2019-05-26T14:47:38.890Z,28.86
2019-05-26T14:50:11.392Z,29.85
2019-05-26T14:52:39.814Z,29.94
2019-05-26T14:55:11.333Z,30.85
2019-05-26T14:57:40.023Z,32.56
2019-05-26T15:00:09.877Z,30.49
2019-05-26T15:02:38.468Z,32.87
2019-05-26T15:05:08.743Z,32.05
2019-05-26T15:07:37.152Z,31.47
2019-05-26T15:10:08.790Z,32.93
2019-05-26T15:12:37.182Z,32.21
2019-05-26T15:15:07.279Z,32.74
2019-05-26T15:17:35.843Z,34.01
2019-05-26T15:20:05.372Z,33.28
2019-05-26T15:22:34.080Z,34.42
2019-05-26T15:25:03.271Z,33.17
2019-05-26T15:27:33.292Z,34.55
2019-05-26T15:30:01.711Z,32.46
2019-05-26T15:32:30.111Z,32.48
2019-05-26T15:34:58.620Z,33.90
2019-05-26T15:37:27.326Z,33.93
2019-05-26T15:39:55.732Z,35.11
2019-05-26T15:42:24.131Z,35.11
2019-05-26T15:44:54.247Z,35.82
2019-05-26T15:47:22.718Z,33.65
2019-05-26T15:49:51.242Z,32.17
2019-05-26T15:52:19.874Z,34.93
2019-05-26T15:54:48.324Z,37.19
2019-05-26T15:57:16.696Z,33.34
2019-05-26T15:59:45.268Z,34.53
2019-05-26T16:02:13.954Z,35.23
2019-05-26T16:04:44.979Z,35.42
2019-05-26T16:07:12.592Z,36.11
2019-05-26T16:09:41.143Z,34.91
2019-05-26T16:12:09.528Z,35.30
2019-05-26T16:14:38.882Z,34.41
2019-05-26T16:17:07.357Z,36.85
2019-05-26T16:19:35.858Z,37.16
2019-05-26T16:22:05.761Z,36.71
2019-05-26T16:24:34.170Z,36.16
2019-05-26T16:27:18.162Z,36.46
2019-05-26T16:29:33.151Z,36.02
2019-05-26T16:32:01.904Z,35.84
2019-05-26T16:34:30.490Z,35.78
2019-05-26T16:36:58.918Z,36.29
2019-05-26T16:39:36.547Z,36.42
2019-05-26T16:41:57.439Z,34.75
2019-05-26T16:44:27.427Z,36.71
2019-05-26T16:46:57.025Z,35.84
2019-05-26T16:49:25.584Z,35.74
2019-05-26T16:51:53.982Z,36.34
2019-05-26T16:54:22.494Z,36.52
2019-05-26T16:56:52.201Z,36.10
2019-05-26T16:59:22.105Z,35.59
2019-05-26T17:01:50.589Z,36.16
2019-05-26T17:04:20.551Z,37.51
2019-05-26T17:06:48.997Z,35.85
2019-05-26T17:09:17.384Z,36.71
2019-05-26T17:11:48.927Z,35.82
2019-05-26T17:14:17.305Z,37.33
2019-05-26T17:16:45.719Z,37.97
2019-05-26T17:19:14.278Z,38.43
2019-05-26T17:21:42.679Z,38.13
2019-05-26T17:24:11.068Z,37.85
2019-05-26T17:26:39.509Z,38.23
2019-05-26T17:29:07.889Z,37.73
2019-05-26T17:31:36.457Z,36.74
2019-05-26T17:34:04.927Z,38.04
2019-05-26T17:36:33.380Z,37.91
2019-05-26T17:39:01.951Z,37.84
2019-05-26T17:41:30.475Z,38.10
2019-05-26T17:43:58.959Z,39.37
2019-05-26T17:46:27.394Z,38.22
2019-05-26T17:48:55.772Z,38.76
2019-05-26T17:51:24.333Z,38.39
2019-05-26T17:53:52.823Z,39.15
2019-05-26T17:56:21.529Z,39.44
2019-05-26T17:58:49.960Z,39.81
2019-05-26T18:01:19.903Z,41.22
2019-05-26T18:03:48.307Z,40.83
2019-05-26T18:06:16.800Z,40.41
2019-05-26T18:08:46.785Z,41.10
2019-05-26T18:11:15.210Z,39.86
2019-05-26T18:13:46.817Z,40.64
2019-05-26T18:16:15.596Z,40.26
2019-05-26T18:18:44.088Z,39.96
2019-05-26T18:21:13.995Z,41.00
2019-05-26T18:23:42.405Z,41.90
2019-05-26T18:26:10.904Z,42.05
2019-05-26T18:28:39.595Z,41.89
2019-05-26T18:31:08.008Z,42.75
2019-05-26T18:33:36.430Z,42.29
2019-05-26T18:36:04.827Z,42.95
2019-05-26T18:38:33.506Z,43.93
2019-05-26T18:41:01.938Z,44.09
2019-05-26T18:43:30.401Z,44.34
2019-05-26T18:45:58.796Z,44.35
2019-05-26T18:48:27.451Z,44.38
2019-05-26T18:50:55.761Z,45.32
2019-05-26T18:53:24.360Z,45.34
2019-05-26T18:55:52.745Z,45.19
2019-05-26T18:58:21.158Z,45.46
2019-05-26T19:00:49.825Z,45.90
2019-05-26T19:03:18.831Z,46.82
2019-05-26T19:05:47.244Z,45.61
2019-05-26T19:08:15.731Z,46.21
2019-05-26T19:10:44.222Z,46.21
2019-05-26T19:13:12.715Z,46.36
2019-05-26T19:15:41.117Z,46.63
2019-05-26T19:18:19.491Z,46.48
2019-05-26T19:20:39.676Z,46.69
2019-05-26T19:23:08.136Z,47.30
2019-05-26T19:25:36.687Z,47.44
2019-05-26T19:28:05.346Z,47.25
2019-05-26T19:30:34.430Z,47.55
2019-05-26T19:33:02.807Z,47.67
2019-05-26T19:35:31.218Z,48.01
2019-05-26T19:37:59.617Z,49.62
2019-05-26T19:40:28.026Z,49.74
2019-05-26T19:42:56.424Z,49.73
2019-05-26T19:45:26.335Z,49.45
2019-05-26T19:47:56.237Z,49.38
2019-05-26T19:50:25.115Z,49.42
2019-05-26T19:52:53.593Z,49.69
2019-05-26T19:55:21.992Z,50.07
2019-05-26T19:57:50.451Z,49.95
2019-05-26T20:00:20.457Z,50.09
2019-05-26T20:02:48.908Z,50.82
2019-05-26T20:05:18.392Z,51.15
2019-05-26T20:07:46.776Z,52.34
2019-05-26T20:10:18.460Z,51.80
2019-05-26T20:12:46.991Z,52.57
2019-05-26T20:15:18.358Z,52.21
2019-05-26T20:17:46.733Z,52.15
2019-05-26T20:20:15.897Z,52.35
2019-05-26T20:22:44.302Z,52.41
2019-05-26T20:25:13.129Z,52.53
2019-05-26T20:27:41.504Z,53.89
2019-05-26T20:30:10.651Z,53.47
2019-05-26T20:32:39.057Z,53.41
2019-05-26T20:35:09.548Z,53.18
2019-05-26T20:37:37.925Z,54.44
2019-05-26T20:40:08.689Z,54.15
2019-05-26T20:42:37.160Z,54.14
2019-05-26T20:45:07.964Z,54.21
2019-05-26T20:47:36.461Z,54.67
2019-05-26T20:50:09.997Z,54.48
2019-05-26T20:52:38.428Z,55.25
2019-05-26T20:55:08.487Z,55.96
2019-05-26T20:57:36.862Z,55.57
2019-05-26T21:00:11.407Z,55.70
2019-05-26T21:02:40.759Z,55.17
2019-05-26T21:05:09.612Z,55.43
2019-05-26T21:07:38.055Z,55.46
2019-05-26T21:10:08.446Z,55.57
2019-05-26T21:12:36.956Z,56.18
2019-05-26T21:15:06.904Z,56.07
2019-05-26T21:17:35.592Z,56.23
2019-05-26T21:20:07.512Z,56.08
2019-05-26T21:22:35.894Z,56.60
2019-05-26T21:25:06.544Z,56.35
2019-05-26T21:27:34.918Z,56.92
2019-05-26T21:30:05.174Z,57.14
2019-05-26T21:32:33.667Z,57.32
2019-05-26T21:35:02.046Z,57.76
2019-05-26T21:37:30.657Z,57.72
2019-05-26T21:39:59.044Z,57.42
2019-05-26T21:42:27.459Z,57.42
2019-05-26T21:44:55.854Z,57.47
2019-05-26T21:47:24.293Z,57.49
2019-05-26T21:49:52.821Z,57.35
2019-05-26T21:52:21.289Z,57.59
2019-05-26T21:54:49.732Z,57.70
2019-05-26T21:57:18.132Z,57.84
2019-05-26T21:59:46.780Z,57.72
2019-05-26T22:02:16.447Z,58.08
2019-05-26T22:04:44.910Z,58.25
2019-05-26T22:07:13.311Z,58.25
2019-05-26T22:09:41.877Z,58.35
2019-05-26T22:12:10.249Z,58.73
2019-05-26T22:14:38.674Z,58.71
2019-05-26T22:17:07.101Z,58.49
2019-05-26T22:19:35.751Z,58.86
2019-05-26T22:22:07.035Z,59.77
2019-05-26T22:24:35.423Z,60.56
2019-05-26T22:27:04.975Z,60.65
2019-05-26T22:29:33.564Z,63.71
2019-05-26T22:32:01.982Z,63.52
2019-05-26T22:34:30.740Z,64.15
2019-05-26T22:37:00.675Z,62.44
2019-05-26T22:39:29.072Z,62.76
2019-05-26T22:41:57.507Z,61.74
2019-05-26T22:44:25.982Z,62.46
2019-05-26T22:46:54.381Z,62.63
2019-05-26T22:49:22.805Z,62.56
2019-05-26T22:51:51.224Z,64.07
2019-05-26T22:54:19.646Z,63.33
2019-05-26T22:56:48.151Z,62.44
2019-05-26T22:59:16.576Z,63.19
2019-05-26T23:01:46.512Z,62.63
2019-05-26T23:04:14.932Z,62.71
2019-05-26T23:06:44.847Z,62.29
2019-05-26T23:09:14.768Z,64.17
2019-05-26T23:11:43.172Z,63.46
2019-05-26T23:14:11.562Z,63.32
2019-05-26T23:16:40.038Z,62.89
2019-05-26T23:19:18.725Z,63.18
2019-05-26T23:21:38.559Z,67.03
2019-05-26T23:24:07.003Z,66.36
2019-05-26T23:26:35.553Z,64.22
2019-05-26T23:29:04.601Z,64.15
2019-05-26T23:31:33.362Z,65.12
2019-05-26T23:34:01.800Z,66.22
2019-05-26T23:36:30.201Z,65.67
2019-05-26T23:38:58.596Z,66.80
2019-05-26T23:41:27.049Z,66.15
2019-05-26T23:43:55.544Z,66.91
2019-05-26T23:46:23.974Z,65.45
2019-05-26T23:48:52.392Z,66.78
2019-05-26T23:51:20.950Z,66.00
2019-05-26T23:53:49.353Z,66.44
2019-05-26T23:56:17.756Z,66.39
2019-05-26T23:58:46.147Z,67.08
